sensor_id;sensor_type;location;lat;lon;timestamp;pressure;altitude;pressure_sealevel;temperature;humidity
8160;BME280;27404;52.398;9.646;2023-07-20T00:00:48;100579.19;;;14.64;100.00
8160;BME280;27404;52.398;9.646;2023-07-20T00:03:19;100583.59;;;14.65;100.00
8160;BME280;27404;52.398;9.646;2023-07-20T00:05:48;100577.78;;;14.61;100.00
8160;BME280;27404;52.398;9.646;2023-07-20T00:08:15;100585.75;;;14.58;100.00
8160;BME280;27404;52.398;9.646;2023-07-20T00:10:41;100579.97;;;14.54;100.00
8160;BME280;27404;52.398;9.646;2023-07-20T00:13:07;100579.97;;;14.54;100.00
8160;BME280;27404;52.398;9.646;2023-07-20T00:15:32;100579.38;;;14.52;100.00
8160;BME280;27404;52.398;9.646;2023-07-20T00:17:58;100580.72;;;14.49;100.00
8160;BME280;27404;52.398;9.646;2023-07-20T00:20:24;100576.94;;;14.56;100.00
8160;BME280;27404;52.398;9.646;2023-07-20T00:22:50;100577.22;;;14.59;100.00
8160;BME280;27404;52.398;9.646;2023-07-20T00:25:16;100563.75;;;14.58;100.00
8160;BME280;27404;52.398;9.646;2023-07-20T00:27:42;100567.59;;;14.57;100.00
8160;BME280;27404;52.398;9.646;2023-07-20T00:30:08;100562.59;;;14.54;100.00
8160;BME280;27404;52.398;9.646;2023-07-20T00:32:33;100568.88;;;14.44;100.00
8160;BME280;27404;52.398;9.646;2023-07-20T00:34:59;100560.25;;;14.35;100.00
8160;BME280;27404;52.398;9.646;2023-07-20T00:37:24;100573.41;;;14.28;100.00
8160;BME280;27404;52.398;9.646;2023-07-20T00:39:51;100570.34;;;14.24;100.00
8160;BME280;27404;52.398;9.646;2023-07-20T00:42:16;100574.44;;;14.16;100.00
8160;BME280;27404;52.398;9.646;2023-07-20T00:44:41;100565.03;;;14.12;100.00
8160;BME280;27404;52.398;9.646;2023-07-20T00:47:07;100567.78;;;14.12;100.00
8160;BME280;27404;52.398;9.646;2023-07-20T00:49:32;100570.53;;;14.12;100.00
8160;BME280;27404;52.398;9.646;2023-07-20T00:52:00;100562.88;;;14.14;100.00
8160;BME280;27404;52.398;9.646;2023-07-20T00:54:27;100558.50;;;14.18;100.00
8160;BME280;27404;52.398;9.646;2023-07-20T00:56:53;100557.41;;;14.19;100.00
8160;BME280;27404;52.398;9.646;2023-07-20T00:59:20;100554.28;;;14.11;100.00
8160;BME280;27404;52.398;9.646;2023-07-20T01:01:46;100553.69;;;14.03;100.00
8160;BME280;27404;52.398;9.646;2023-07-20T01:04:11;100557.22;;;13.99;100.00
8160;BME280;27404;52.398;9.646;2023-07-20T01:06:50;100553.34;;;13.95;100.00
8160;BME280;27404;52.398;9.646;2023-07-20T01:09:31;100560.78;;;13.99;100.00
8160;BME280;27404;52.398;9.646;2023-07-20T01:12:06;100563.84;;;14.03;100.00
8160;BME280;27404;52.398;9.646;2023-07-20T01:14:34;100566.31;;;14.04;100.00
8160;BME280;27404;52.398;9.646;2023-07-20T01:17:00;100564.66;;;14.03;100.00
8160;BME280;27404;52.398;9.646;2023-07-20T01:19:25;100562.44;;;14.00;100.00
8160;BME280;27404;52.398;9.646;2023-07-20T01:21:55;100566.03;;;14.01;100.00
8160;BME280;27404;52.398;9.646;2023-07-20T01:24:35;100563.53;;;13.99;100.00
8160;BME280;27404;52.398;9.646;2023-07-20T01:30:27;100554.31;;;13.83;100.00
8160;BME280;27404;52.398;9.646;2023-07-20T01:32:58;100557.53;;;13.75;100.00
8160;BME280;27404;52.398;9.646;2023-07-20T01:35:28;100568.72;;;13.68;100.00
8160;BME280;27404;52.398;9.646;2023-07-20T01:37:55;100565.94;;;13.63;100.00
8160;BME280;27404;52.398;9.646;2023-07-20T01:40:22;100568.34;;;13.59;100.00
8160;BME280;27404;52.398;9.646;2023-07-20T01:42:48;100571.41;;;13.63;100.00
8160;BME280;27404;52.398;9.646;2023-07-20T01:45:14;100571.22;;;13.70;100.00
8160;BME280;27404;52.398;9.646;2023-07-20T01:47:40;100571.03;;;13.76;100.00
8160;BME280;27404;52.398;9.646;2023-07-20T01:50:06;100566.72;;;13.86;100.00
8160;BME280;27404;52.398;9.646;2023-07-20T01:52:32;100568.25;;;14.04;100.00
8160;BME280;27404;52.398;9.646;2023-07-20T01:54:58;100574.63;;;14.10;100.00
8160;BME280;27404;52.398;9.646;2023-07-20T01:57:23;100567.50;;;14.14;100.00
8160;BME280;27404;52.398;9.646;2023-07-20T01:59:49;100565.03;;;14.12;100.00
8160;BME280;27404;52.398;9.646;2023-07-20T02:02:14;100566.94;;;14.12;100.00
8160;BME280;27404;52.398;9.646;2023-07-20T02:04:40;100562.25;;;14.07;100.00
8160;BME280;27404;52.398;9.646;2023-07-20T02:07:05;100560.78;;;13.99;100.00
8160;BME280;27404;52.398;9.646;2023-07-20T02:09:30;100564.84;;;13.91;100.00
8160;BME280;27404;52.398;9.646;2023-07-20T02:11:56;100551.28;;;13.80;100.00
8160;BME280;27404;52.398;9.646;2023-07-20T02:14:21;100556.38;;;13.71;100.00
8160;BME280;27404;52.398;9.646;2023-07-20T02:16:48;100556.31;;;13.66;100.00
8160;BME280;27404;52.398;9.646;2023-07-20T02:19:17;100555.16;;;13.56;100.00
8160;BME280;27404;52.398;9.646;2023-07-20T02:21:43;100555.91;;;13.52;100.00
8160;BME280;27404;52.398;9.646;2023-07-20T02:24:08;100554.25;;;13.51;100.00
8160;BME280;27404;52.398;9.646;2023-07-20T02:26:33;100559.97;;;13.44;100.00
8160;BME280;27404;52.398;9.646;2023-07-20T02:28:59;100560.69;;;13.39;100.00
8160;BME280;27404;52.398;9.646;2023-07-20T02:31:24;100561.41;;;13.29;100.00
8160;BME280;27404;52.398;9.646;2023-07-20T02:33:50;100561.84;;;13.21;100.00
8160;BME280;27404;52.398;9.646;2023-07-20T02:36:15;100563.25;;;13.24;100.00
8160;BME280;27404;52.398;9.646;2023-07-20T02:38:42;100570.78;;;13.33;100.00
8160;BME280;27404;52.398;9.646;2023-07-20T02:41:07;100568.44;;;13.42;100.00
8160;BME280;27404;52.398;9.646;2023-07-20T02:43:33;100563.34;;;13.51;100.00
8160;BME280;27404;52.398;9.646;2023-07-20T02:45:58;100567.53;;;13.59;100.00
8160;BME280;27404;52.398;9.646;2023-07-20T02:48:24;100562.91;;;13.65;100.00
8160;BME280;27404;52.398;9.646;2023-07-20T02:50:49;100566.50;;;13.65;100.00
8160;BME280;27404;52.398;9.646;2023-07-20T02:53:14;100556.59;;;13.64;100.00
8160;BME280;27404;52.398;9.646;2023-07-20T02:55:40;100554.16;;;13.68;100.00
8160;BME280;27404;52.398;9.646;2023-07-20T02:58:05;100558.88;;;13.72;100.00
8160;BME280;27404;52.398;9.646;2023-07-20T03:00:31;100560.59;;;13.79;100.00
8160;BME280;27404;52.398;9.646;2023-07-20T03:02:56;100549.63;;;13.79;100.00
8160;BME280;27404;52.398;9.646;2023-07-20T03:05:22;100559.75;;;13.78;100.00
8160;BME280;27404;52.398;9.646;2023-07-20T03:07:50;100565.59;;;13.82;100.00
8160;BME280;27404;52.398;9.646;2023-07-20T03:10:16;100569.16;;;13.82;100.00
8160;BME280;27404;52.398;9.646;2023-07-20T03:12:42;100577.38;;;13.82;100.00
8160;BME280;27404;52.398;9.646;2023-07-20T03:15:08;100576.34;;;13.88;100.00
8160;BME280;27404;52.398;9.646;2023-07-20T03:17:33;100575.84;;;13.91;100.00
8160;BME280;27404;52.398;9.646;2023-07-20T03:19:59;100563.75;;;13.92;100.00
8160;BME280;27404;52.398;9.646;2023-07-20T03:22:26;100566.78;;;13.96;100.00
8160;BME280;27404;52.398;9.646;2023-07-20T03:24:51;100570.38;;;13.97;100.00
8160;BME280;27404;52.398;9.646;2023-07-20T03:27:17;100569.59;;;14.01;100.00
8160;BME280;27404;52.398;9.646;2023-07-20T03:29:43;100578.16;;;14.05;100.00
8160;BME280;27404;52.398;9.646;2023-07-20T03:32:10;100577.91;;;14.06;100.00
8160;BME280;27404;52.398;9.646;2023-07-20T03:34:36;100574.63;;;14.10;100.00
8160;BME280;27404;52.398;9.646;2023-07-20T03:37:01;100564.19;;;14.12;100.00
8160;BME280;27404;52.398;9.646;2023-07-20T03:39:30;100571.09;;;14.14;100.00
8160;BME280;27404;52.398;9.646;2023-07-20T03:41:55;100569.75;;;14.17;100.00
8160;BME280;27404;52.398;9.646;2023-07-20T03:44:22;100565.13;;;14.23;100.00
8160;BME280;27404;52.398;9.646;2023-07-20T03:46:47;100562.09;;;14.24;100.00
8160;BME280;27404;52.398;9.646;2023-07-20T03:49:13;100568.41;;;14.25;100.00
8160;BME280;27404;52.398;9.646;2023-07-20T03:51:38;100567.91;;;14.28;100.00
8160;BME280;27404;52.398;9.646;2023-07-20T03:54:04;100572.88;;;14.31;100.00
8160;BME280;27404;52.398;9.646;2023-07-20T03:56:29;100574.81;;;14.30;100.00
8160;BME280;27404;52.398;9.646;2023-07-20T03:58:59;100574.84;;;14.35;100.00
8160;BME280;27404;52.398;9.646;2023-07-20T04:01:24;100576.22;;;14.38;100.00
8160;BME280;27404;52.398;9.646;2023-07-20T04:03:50;100577.31;;;14.37;100.00
8160;BME280;27404;52.398;9.646;2023-07-20T04:06:15;100585.84;;;14.35;100.00
8160;BME280;27404;52.398;9.646;2023-07-20T04:08:42;100582.00;;;14.36;100.00
8160;BME280;27404;52.398;9.646;2023-07-20T04:11:08;100593.25;;;14.35;100.00
8160;BME280;27404;52.398;9.646;2023-07-20T04:13:33;100604.72;;;14.27;100.00
8160;BME280;27404;52.398;9.646;2023-07-20T04:15:59;100602.22;;;14.20;100.00
8160;BME280;27404;52.398;9.646;2023-07-20T04:18:25;100607.13;;;14.18;100.00
8160;BME280;27404;52.398;9.646;2023-07-20T04:20:50;100606.56;;;14.16;100.00
8160;BME280;27404;52.398;9.646;2023-07-20T04:23:16;100594.44;;;14.12;100.00
8160;BME280;27404;52.398;9.646;2023-07-20T04:25:42;100602.91;;;14.05;100.00
8160;BME280;27404;52.398;9.646;2023-07-20T04:28:08;100608.06;;;14.01;100.00
8160;BME280;27404;52.398;9.646;2023-07-20T04:30:36;100612.47;;;14.02;100.00
8160;BME280;27404;52.398;9.646;2023-07-20T04:33:03;100602.00;;;13.99;100.00
8160;BME280;27404;52.398;9.646;2023-07-20T04:38:10;100608.59;;;13.98;100.00
8160;BME280;27404;52.398;9.646;2023-07-20T04:40:36;100617.69;;;13.99;100.00
8160;BME280;27404;52.398;9.646;2023-07-20T04:43:01;100618.25;;;14.01;100.00
8160;BME280;27404;52.398;9.646;2023-07-20T04:45:26;100622.97;;;14.05;100.00
8160;BME280;27404;52.398;9.646;2023-07-20T04:47:52;100621.94;;;14.12;100.00
8160;BME280;27404;52.398;9.646;2023-07-20T04:50:17;100624.91;;;14.05;100.00
8160;BME280;27404;52.398;9.646;2023-07-20T04:52:43;100618.81;;;14.03;100.00
8160;BME280;27404;52.398;9.646;2023-07-20T04:55:08;100629.34;;;14.11;100.00
8160;BME280;27404;52.398;9.646;2023-07-20T04:57:34;100619.19;;;14.12;100.00
8160;BME280;27404;52.398;9.646;2023-07-20T04:59:59;100630.69;;;14.09;100.00
8160;BME280;27404;52.398;9.646;2023-07-20T05:02:25;100631.31;;;14.16;100.00
8160;BME280;27404;52.398;9.646;2023-07-20T05:04:50;100634.63;;;14.18;100.00
8160;BME280;27404;52.398;9.646;2023-07-20T05:07:16;100636.00;;;14.15;100.00
8160;BME280;27404;52.398;9.646;2023-07-20T05:09:41;100635.25;;;14.25;100.00
8160;BME280;27404;52.398;9.646;2023-07-20T05:12:07;100625.41;;;14.29;100.00
8160;BME280;27404;52.398;9.646;2023-07-20T05:14:32;100627.31;;;14.29;100.00
8160;BME280;27404;52.398;9.646;2023-07-20T05:16:58;100624.56;;;14.29;100.00
8160;BME280;27404;52.398;9.646;2023-07-20T05:19:24;100623.50;;;14.35;100.00
8160;BME280;27404;52.398;9.646;2023-07-20T05:21:50;100632.31;;;14.37;100.00
8160;BME280;27404;52.398;9.646;2023-07-20T05:24:15;100637.78;;;14.32;100.00
8160;BME280;27404;52.398;9.646;2023-07-20T05:26:41;100641.38;;;14.32;100.00
8160;BME280;27404;52.398;9.646;2023-07-20T05:29:06;100633.94;;;14.33;100.00
8160;BME280;27404;52.398;9.646;2023-07-20T05:31:32;100632.59;;;14.35;100.00
8160;BME280;27404;52.398;9.646;2023-07-20T05:33:58;100638.66;;;14.38;100.00
8160;BME280;27404;52.398;9.646;2023-07-20T05:36:24;100642.56;;;14.42;100.00
8160;BME280;27404;52.398;9.646;2023-07-20T05:38:49;100643.94;;;14.44;100.00
8160;BME280;27404;52.398;9.646;2023-07-20T05:41:15;100648.31;;;14.40;100.00
8160;BME280;27404;52.398;9.646;2023-07-20T05:43:40;100643.66;;;14.41;100.00
8160;BME280;27404;52.398;9.646;2023-07-20T05:46:07;100650.84;;;14.47;100.00
8160;BME280;27404;52.398;9.646;2023-07-20T05:48:32;100645.13;;;14.54;100.00
8160;BME280;27404;52.398;9.646;2023-07-20T05:50:58;100651.38;;;14.71;100.00
8160;BME280;27404;52.398;9.646;2023-07-20T05:53:23;100651.50;;;14.92;100.00
8160;BME280;27404;52.398;9.646;2023-07-20T05:55:53;100646.69;;;15.15;100.00
8160;BME280;27404;52.398;9.646;2023-07-20T05:58:19;100651.19;;;15.31;100.00
8160;BME280;27404;52.398;9.646;2023-07-20T06:00:48;100650.13;;;15.37;100.00
8160;BME280;27404;52.398;9.646;2023-07-20T06:03:13;100650.19;;;15.58;100.00
8160;BME280;27404;52.398;9.646;2023-07-20T06:05:39;100642.28;;;15.72;100.00
8160;BME280;27404;52.398;9.646;2023-07-20T06:08:04;100647.34;;;16.01;100.00
8160;BME280;27404;52.398;9.646;2023-07-20T06:10:30;100644.91;;;16.10;100.00
8160;BME280;27404;52.398;9.646;2023-07-20T06:12:55;100644.94;;;16.20;100.00
8160;BME280;27404;52.398;9.646;2023-07-20T06:15:39;100649.88;;;16.23;100.00
8160;BME280;27404;52.398;9.646;2023-07-20T06:18:06;100651.53;;;16.24;100.00
8160;BME280;27404;52.398;9.646;2023-07-20T06:20:31;100648.22;;;16.27;100.00
8160;BME280;27404;52.398;9.646;2023-07-20T06:22:57;100649.88;;;16.23;100.00
8160;BME280;27404;52.398;9.646;2023-07-20T06:25:22;100654.84;;;16.11;100.00
8160;BME280;27404;52.398;9.646;2023-07-20T06:27:49;100650.94;;;16.02;100.00
8160;BME280;27404;52.398;9.646;2023-07-20T06:30:19;100655.94;;;16.10;100.00
8160;BME280;27404;52.398;9.646;2023-07-20T06:32:45;100655.69;;;16.32;100.00
8160;BME280;27404;52.398;9.646;2023-07-20T06:35:10;100657.34;;;16.38;100.00
8160;BME280;27404;52.398;9.646;2023-07-20T06:37:36;100666.47;;;16.60;100.00
8160;BME280;27404;52.398;9.646;2023-07-20T06:40:03;100669.22;;;16.85;100.00
8160;BME280;27404;52.398;9.646;2023-07-20T06:42:31;100667.47;;;17.52;100.00
8160;BME280;27404;52.398;9.646;2023-07-20T06:44:57;100665.66;;;17.82;100.00
8160;BME280;27404;52.398;9.646;2023-07-20T06:47:23;100670.28;;;18.02;100.00
8160;BME280;27404;52.398;9.646;2023-07-20T06:49:48;100668.78;;;18.60;100.00
8160;BME280;27404;52.398;9.646;2023-07-20T06:52:14;100675.34;;;19.04;100.00
8160;BME280;27404;52.398;9.646;2023-07-20T06:54:39;100669.19;;;19.12;100.00
8160;BME280;27404;52.398;9.646;2023-07-20T06:57:05;100670.28;;;19.11;100.00
8160;BME280;27404;52.398;9.646;2023-07-20T06:59:30;100678.88;;;18.80;100.00
8160;BME280;27404;52.398;9.646;2023-07-20T07:01:56;100677.41;;;18.88;100.00
8160;BME280;27404;52.398;9.646;2023-07-20T07:04:21;100674.34;;;20.68;100.00
8160;BME280;27404;52.398;9.646;2023-07-20T07:06:47;100674.38;;;22.50;100.00
8160;BME280;27404;52.398;9.646;2023-07-20T07:09:13;100673.81;;;22.25;100.00
8160;BME280;27404;52.398;9.646;2023-07-20T07:11:39;100669.16;;;22.21;100.00
8160;BME280;27404;52.398;9.646;2023-07-20T07:14:04;100674.31;;;23.50;100.00
8160;BME280;27404;52.398;9.646;2023-07-20T07:16:30;100678.69;;;23.42;100.00
8160;BME280;27404;52.398;9.646;2023-07-20T07:18:55;100676.66;;;22.34;100.00
8160;BME280;27404;52.398;9.646;2023-07-20T07:21:21;100673.47;;;21.34;100.00
8160;BME280;27404;52.398;9.646;2023-07-20T07:23:46;100674.63;;;20.34;100.00
8160;BME280;27404;52.398;9.646;2023-07-20T07:26:12;100676.53;;;21.05;100.00
8160;BME280;27404;52.398;9.646;2023-07-20T07:28:38;100674.38;;;23.76;100.00
8160;BME280;27404;52.398;9.646;2023-07-20T07:31:07;100682.34;;;24.71;86.18
8160;BME280;27404;52.398;9.646;2023-07-20T07:33:33;100681.41;;;23.74;87.72
8160;BME280;27404;52.398;9.646;2023-07-20T07:35:58;100692.41;;;22.16;100.00
8160;BME280;27404;52.398;9.646;2023-07-20T07:38:24;100687.91;;;24.01;92.55
8160;BME280;27404;52.398;9.646;2023-07-20T07:40:49;100702.78;;;25.28;79.72
8160;BME280;27404;52.398;9.646;2023-07-20T07:43:15;100701.72;;;24.67;76.13
8160;BME280;27404;52.398;9.646;2023-07-20T07:45:40;100700.06;;;22.92;83.93
8160;BME280;27404;52.398;9.646;2023-07-20T07:48:06;100703.59;;;21.74;97.46
8160;BME280;27404;52.398;9.646;2023-07-20T07:50:33;100696.56;;;21.63;100.00
8160;BME280;27404;52.398;9.646;2023-07-20T07:52:58;100702.66;;;21.79;100.00
8160;BME280;27404;52.398;9.646;2023-07-20T07:55:25;100703.97;;;21.53;100.00
8160;BME280;27404;52.398;9.646;2023-07-20T07:57:52;100696.16;;;21.83;100.00
8160;BME280;27404;52.398;9.646;2023-07-20T08:00:18;100702.53;;;21.56;100.00
8160;BME280;27404;52.398;9.646;2023-07-20T08:02:45;100702.22;;;20.96;100.00
8160;BME280;27404;52.398;9.646;2023-07-20T08:05:12;100703.81;;;20.50;100.00
8160;BME280;27404;52.398;9.646;2023-07-20T08:07:38;100709.19;;;20.61;100.00
8160;BME280;27404;52.398;9.646;2023-07-20T08:10:04;100704.28;;;20.91;100.00
8160;BME280;27404;52.398;9.646;2023-07-20T08:12:30;100708.50;;;20.69;100.00
8160;BME280;27404;52.398;9.646;2023-07-20T08:14:56;100707.47;;;20.26;100.00
8160;BME280;27404;52.398;9.646;2023-07-20T08:17:21;100704.16;;;20.44;100.00
8160;BME280;27404;52.398;9.646;2023-07-20T08:19:46;100698.75;;;20.33;100.00
8160;BME280;27404;52.398;9.646;2023-07-20T08:22:12;100710.47;;;20.11;100.00
8160;BME280;27404;52.398;9.646;2023-07-20T08:24:41;100707.47;;;20.46;98.01
8160;BME280;27404;52.398;9.646;2023-07-20T08:27:10;100704.50;;;20.94;94.16
8160;BME280;27404;52.398;9.646;2023-07-20T08:29:36;100705.63;;;20.93;94.50
8160;BME280;27404;52.398;9.646;2023-07-20T08:34:29;100708.88;;;20.62;92.75
8160;BME280;27404;52.398;9.646;2023-07-20T08:36:55;100704.13;;;21.01;94.74
8160;BME280;27404;52.398;9.646;2023-07-20T08:39:21;100710.34;;;21.40;88.75
8160;BME280;27404;52.398;9.646;2023-07-20T08:41:48;100713.84;;;21.18;92.76
8160;BME280;27404;52.398;9.646;2023-07-20T08:44:14;100721.38;;;21.45;94.74
8160;BME280;27404;52.398;9.646;2023-07-20T08:46:40;100722.56;;;21.25;86.82
8160;BME280;27404;52.398;9.646;2023-07-20T08:49:06;100727.31;;;21.71;84.60
8160;BME280;27404;52.398;9.646;2023-07-20T08:51:33;100720.13;;;21.37;80.53
8160;BME280;27404;52.398;9.646;2023-07-20T08:53:59;100715.94;;;21.54;82.51
8160;BME280;27404;52.398;9.646;2023-07-20T08:56:25;100716.72;;;21.54;83.52
8160;BME280;27404;52.398;9.646;2023-07-20T08:58:53;100717.81;;;20.78;88.65
8160;BME280;27404;52.398;9.646;2023-07-20T09:01:19;100717.31;;;20.38;90.94
8160;BME280;27404;52.398;9.646;2023-07-20T09:03:46;100715.50;;;20.28;93.13
8160;BME280;27404;52.398;9.646;2023-07-20T09:06:12;100715.34;;;20.57;92.05
8160;BME280;27404;52.398;9.646;2023-07-20T09:08:39;100715.56;;;20.61;88.31
8160;BME280;27404;52.398;9.646;2023-07-20T09:11:04;100715.56;;;20.80;87.80
8160;BME280;27404;52.398;9.646;2023-07-20T09:13:32;100710.75;;;20.67;88.89
8160;BME280;27404;52.398;9.646;2023-07-20T09:15:58;100712.09;;;20.69;88.39
8160;BME280;27404;52.398;9.646;2023-07-20T09:18:27;100713.91;;;20.60;79.31
8160;BME280;27404;52.398;9.646;2023-07-20T09:20:58;100713.16;;;20.54;87.38
8160;BME280;27404;52.398;9.646;2023-07-20T09:23:35;100715.56;;;20.80;86.21
8160;BME280;27404;52.398;9.646;2023-07-20T09:26:12;100705.31;;;21.42;84.54
8160;BME280;27404;52.398;9.646;2023-07-20T09:28:52;100709.94;;;21.47;81.03
8160;BME280;27404;52.398;9.646;2023-07-20T09:31:19;100701.94;;;21.73;77.26
8160;BME280;27404;52.398;9.646;2023-07-20T09:33:45;100708.13;;;21.70;76.54
8160;BME280;27404;52.398;9.646;2023-07-20T09:36:12;100710.47;;;21.91;76.60
8160;BME280;27404;52.398;9.646;2023-07-20T09:38:38;100714.06;;;21.91;74.27
8160;BME280;27404;52.398;9.646;2023-07-20T09:41:05;100711.50;;;21.95;73.72
8160;BME280;27404;52.398;9.646;2023-07-20T09:43:34;100713.34;;;21.57;70.20
8160;BME280;27404;52.398;9.646;2023-07-20T09:46:03;100718.38;;;21.55;69.08
8160;BME280;27404;52.398;9.646;2023-07-20T09:48:29;100714.69;;;22.02;68.37
8160;BME280;27404;52.398;9.646;2023-07-20T09:50:55;100714.59;;;21.79;68.12
8160;BME280;27404;52.398;9.646;2023-07-20T09:53:24;100715.94;;;21.96;68.59
8160;BME280;27404;52.398;9.646;2023-07-20T09:55:50;100707.81;;;21.85;66.53
8160;BME280;27404;52.398;9.646;2023-07-20T09:58:16;100695.75;;;21.76;68.83
8160;BME280;27404;52.398;9.646;2023-07-20T10:00:42;100697.59;;;21.67;68.57
8160;BME280;27404;52.398;9.646;2023-07-20T10:03:10;100702.66;;;21.65;66.08
8160;BME280;27404;52.398;9.646;2023-07-20T10:05:49;100712.81;;;21.55;70.75
8160;BME280;27404;52.398;9.646;2023-07-20T10:08:18;100707.06;;;21.52;67.73
8160;BME280;27404;52.398;9.646;2023-07-20T10:10:47;100704.63;;;21.78;66.43
8160;BME280;27404;52.398;9.646;2023-07-20T10:13:18;100712.66;;;21.80;70.86
8160;BME280;27404;52.398;9.646;2023-07-20T10:15:48;100714.59;;;21.93;67.86
8160;BME280;27404;52.398;9.646;2023-07-20T10:18:51;100711.75;;;21.70;67.02
8160;BME280;27404;52.398;9.646;2023-07-20T10:21:21;100716.56;;;21.65;68.02
8160;BME280;27404;52.398;9.646;2023-07-20T10:23:48;100720.34;;;21.41;67.16
8160;BME280;27404;52.398;9.646;2023-07-20T10:26:16;100715.41;;;21.38;68.25
8160;BME280;27404;52.398;9.646;2023-07-20T10:28:41;100716.03;;;21.01;71.36
8160;BME280;27404;52.398;9.646;2023-07-20T10:31:09;100720.09;;;21.09;72.02
8160;BME280;27404;52.398;9.646;2023-07-20T10:33:37;100713.84;;;21.18;70.56
8160;BME280;27404;52.398;9.646;2023-07-20T10:36:04;100707.88;;;21.24;70.20
8160;BME280;27404;52.398;9.646;2023-07-20T10:38:52;100704.06;;;20.87;71.13
8160;BME280;27404;52.398;9.646;2023-07-20T10:41:39;100704.53;;;21.08;71.90
8160;BME280;27404;52.398;9.646;2023-07-20T10:44:08;100698.53;;;21.48;71.27
8160;BME280;27404;52.398;9.646;2023-07-20T10:46:43;100691.81;;;21.35;66.94
8160;BME280;27404;52.398;9.646;2023-07-20T10:49:13;100693.78;;;21.35;71.95
8160;BME280;27404;52.398;9.646;2023-07-20T10:51:44;100696.97;;;21.42;70.02
8160;BME280;27404;52.398;9.646;2023-07-20T10:56:43;100697.94;;;21.65;68.97
8160;BME280;27404;52.398;9.646;2023-07-20T11:01:51;100699.84;;;21.51;68.24
8160;BME280;27404;52.398;9.646;2023-07-20T11:04:40;100700.69;;;21.79;71.33
8160;BME280;27404;52.398;9.646;2023-07-20T11:07:06;100699.56;;;21.80;67.74
8160;BME280;27404;52.398;9.646;2023-07-20T11:09:36;100693.38;;;21.83;67.88
8160;BME280;27404;52.398;9.646;2023-07-20T11:12:12;100693.16;;;22.44;71.05
8160;BME280;27404;52.398;9.646;2023-07-20T11:14:43;100697.72;;;22.26;64.82
8160;BME280;27404;52.398;9.646;2023-07-20T11:17:14;100697.38;;;22.05;62.99
8160;BME280;27404;52.398;9.646;2023-07-20T11:19:40;100701.09;;;22.37;61.81
8160;BME280;27404;52.398;9.646;2023-07-20T11:22:07;100704.63;;;22.66;63.74
8160;BME280;27404;52.398;9.646;2023-07-20T11:24:41;100709.13;;;22.02;65.90
8160;BME280;27404;52.398;9.646;2023-07-20T11:27:14;100711.50;;;21.53;66.51
8160;BME280;27404;52.398;9.646;2023-07-20T11:29:40;100715.34;;;21.10;70.25
8160;BME280;27404;52.398;9.646;2023-07-20T11:32:06;100713.03;;;20.84;70.44
8160;BME280;27404;52.398;9.646;2023-07-20T11:34:33;100718.00;;;21.01;73.02
8160;BME280;27404;52.398;9.646;2023-07-20T11:37:00;100713.16;;;20.93;75.68
8160;BME280;27404;52.398;9.646;2023-07-20T11:39:25;100704.75;;;21.12;73.10
8160;BME280;27404;52.398;9.646;2023-07-20T11:41:53;100707.25;;;21.27;71.75
8160;BME280;27404;52.398;9.646;2023-07-20T11:44:21;100711.41;;;21.58;69.06
8160;BME280;27404;52.398;9.646;2023-07-20T11:47:08;100692.91;;;22.18;67.17
8160;BME280;27404;52.398;9.646;2023-07-20T11:49:38;100700.19;;;22.28;67.85
8160;BME280;27404;52.398;9.646;2023-07-20T11:52:10;100695.75;;;21.76;65.71
8160;BME280;27404;52.398;9.646;2023-07-20T11:54:40;100694.78;;;22.09;64.73
8160;BME280;27404;52.398;9.646;2023-07-20T11:57:06;100686.03;;;22.38;64.15
8160;BME280;27404;52.398;9.646;2023-07-20T11:59:33;100690.75;;;22.52;65.42
8160;BME280;27404;52.398;9.646;2023-07-20T12:02:01;100689.06;;;22.28;62.70
8160;BME280;27404;52.398;9.646;2023-07-20T12:04:27;100695.94;;;22.44;62.57
8160;BME280;27404;52.398;9.646;2023-07-20T12:06:53;100696.59;;;22.64;60.42
8160;BME280;27404;52.398;9.646;2023-07-20T12:09:20;100702.97;;;22.65;59.29
8160;BME280;27404;52.398;9.646;2023-07-20T12:11:49;100701.31;;;22.27;61.01
8160;BME280;27404;52.398;9.646;2023-07-20T12:14:14;100698.91;;;22.11;62.97
8160;BME280;27404;52.398;9.646;2023-07-20T12:16:40;100692.53;;;21.97;63.50
8160;BME280;27404;52.398;9.646;2023-07-20T12:19:12;100700.66;;;21.93;62.81
8160;BME280;27404;52.398;9.646;2023-07-20T12:21:40;100700.16;;;21.91;65.36
8160;BME280;27404;52.398;9.646;2023-07-20T12:24:07;100688.81;;;21.32;68.97
8160;BME280;27404;52.398;9.646;2023-07-20T12:26:34;100693.25;;;21.60;68.61
8160;BME280;27404;52.398;9.646;2023-07-20T12:29:00;100690.50;;;21.88;67.36
8160;BME280;27404;52.398;9.646;2023-07-20T12:31:26;100693.75;;;22.41;67.67
8160;BME280;27404;52.398;9.646;2023-07-20T12:33:53;100688.38;;;22.82;65.87
8160;BME280;27404;52.398;9.646;2023-07-20T12:36:22;100684.88;;;22.76;65.40
8160;BME280;27404;52.398;9.646;2023-07-20T12:38:48;100681.19;;;22.67;64.66
8160;BME280;27404;52.398;9.646;2023-07-20T12:41:14;100674.97;;;22.92;63.91
8160;BME280;27404;52.398;9.646;2023-07-20T12:43:43;100672.78;;;22.81;61.39
8160;BME280;27404;52.398;9.646;2023-07-20T12:46:10;100673.41;;;22.77;61.33
8160;BME280;27404;52.398;9.646;2023-07-20T12:48:37;100662.19;;;22.91;60.26
8160;BME280;27404;52.398;9.646;2023-07-20T12:51:04;100669.53;;;22.42;60.60
8160;BME280;27404;52.398;9.646;2023-07-20T12:53:31;100670.50;;;22.23;62.59
8160;BME280;27404;52.398;9.646;2023-07-20T12:55:56;100669.50;;;22.56;63.18
8160;BME280;27404;52.398;9.646;2023-07-20T12:58:22;100677.72;;;22.61;59.55
8160;BME280;27404;52.398;9.646;2023-07-20T13:00:48;100674.88;;;22.52;56.64
8160;BME280;27404;52.398;9.646;2023-07-20T13:03:14;100679.88;;;22.64;54.23
8160;BME280;27404;52.398;9.646;2023-07-20T13:05:41;100678.59;;;22.47;55.88